Main page
METAR-TAF:

METAR-TAF

Airports :

Bournemouth, England

Bournemouth Airport

latitude: 50-47N, longitude: 001-50W, elevation: 11 m

Current weather observation

The report was made 27 minutes ago, at 08:20 UTC
Wind 5 kt from the North, varying between West/Southwest and Northwest
Temperature 17°C
Humidity 77%
Pressure 1021 hPa
Visibility 10 km or more
Broken clouds at a height of 2100 ft

METAR: EGHH 230820Z 36005KT 240V320 9999 BKN021 17/13 Q1021

Time: 09:47 (08:47 UTC)

Forecast

The report was made 46 minutes ago, at 08:01 UTC
Forecast valid from 23 at 09 UTC to 23 at 18 UTC
Wind 6 kt from the West
Visibility 10 km or more
Few clouds at a height of 1200 ft
Scattered clouds at a height of 2000 ft
Probability 30% :
Temporary
from 23 at 09 UTC to 23 at 12 UTC
Broken clouds at a height of 1200 ft

TAF: EGHH 230801Z 2309/2318 27006KT 9999 FEW012 SCT020 PROB30 TEMPO 2309/2312 BKN012

Weather observations and forecasts of more than 4000 airports (METAR and TAF reports).

The available stations are represented by yellow and red dots on the map.

Hover mouse over dot to see the name of the station.

Then click to see weather observations and forecasts.

To change the map : click on the green buttons with a black cross to zoom in, on the green button with a dash to zoom out, or on the green arrows for adjacent maps.


METAR-TAF: